Time;durP1;ratioP1;P1;durP2;ratioP2;P2;SDS_P1;SDS_P2;PMS_P1;PMS_P2;Temp;Humidity;BMP_temperature;BMP_pressure;BME280_temperature;BME280_humidity;BME280_pressure;Samples;Min_cycle;Max_cycle;Signal;HPM_P1;HPM_P2
2022/06/26 00:02:15;;;;;;;0.00;0.00;;;;;;;24.46;100.00;100804.91;2618417;54;20152;-63
2022/06/26 00:04:45;;;;;;;0.00;0.00;;;;;;;24.38;100.00;100805.81;2616556;54;20148;-64
2022/06/26 00:07:16;;;;;;;0.00;0.00;;;;;;;24.33;100.00;100812.66;2616460;54;20166;-63
2022/06/26 00:09:46;;;;;;;0.00;0.00;;;;;;;24.45;100.00;100813.88;2616262;54;20501;-63
2022/06/26 00:12:16;;;;;;;0.00;0.00;;;;;;;24.43;100.00;100808.78;2616635;54;20148;-63
2022/06/26 00:14:49;;;;;;;0.00;0.00;;;;;;;24.30;100.00;100816.50;2616355;54;20150;-63
2022/06/26 00:17:20;;;;;;;0.00;0.00;;;;;;;24.01;100.00;100817.19;2617016;39;20562;-63
2022/06/26 00:19:50;;;;;;;0.10;0.10;;;;;;;23.42;100.00;100809.88;2616128;54;20141;-63
2022/06/26 00:22:20;;;;;;;0.00;0.00;;;;;;;23.21;100.00;100815.75;2616383;54;20141;-63
2022/06/26 00:24:50;;;;;;;1.02;0.22;;;;;;;22.76;100.00;100811.06;2616346;54;20146;-64
2022/06/26 00:27:21;;;;;;;0.10;0.10;;;;;;;22.48;100.00;100817.66;2616479;54;20142;-63
2022/06/26 00:29:54;;;;;;;0.00;0.00;;;;;;;23.15;100.00;100811.16;2616309;54;20686;-64
2022/06/26 00:32:24;;;;;;;0.00;0.00;;;;;;;23.28;100.00;100809.59;2616238;54;20142;-64
2022/06/26 00:34:54;;;;;;;0.00;0.00;;;;;;;23.81;100.00;100815.97;2616237;54;20146;-63
2022/06/26 00:37:24;;;;;;;0.00;0.00;;;;;;;24.03;100.00;100815.16;2617017;54;20146;-64
2022/06/26 00:39:55;;;;;;;0.00;0.00;;;;;;;24.16;100.00;100817.25;2616304;54;20698;-63
2022/06/26 00:42:25;;;;;;;0.00;0.00;;;;;;;24.35;100.00;100815.97;2617304;54;20145;-63
2022/06/26 00:44:58;;;;;;;0.00;0.00;;;;;;;24.44;100.00;100812.22;2617491;54;20170;-63
2022/06/26 00:47:30;;;;;;;3.78;3.65;;;;;;;24.41;100.00;100816.06;2616413;54;20689;-64
2022/06/26 00:50:01;;;;;;;0.73;0.73;;;;;;;23.72;100.00;100814.38;2616463;54;20142;-63
2022/06/26 00:52:32;;;;;;;0.00;0.00;;;;;;;23.72;100.00;100812.53;2616480;54;20203;-63
2022/06/26 00:55:02;;;;;;;0.00;0.00;;;;;;;23.82;100.00;100809.69;2616357;54;20146;-63
2022/06/26 00:57:33;;;;;;;0.45;0.45;;;;;;;23.56;100.00;100802.03;2616575;54;20674;-64
2022/06/26 01:00:08;;;;;;;0.20;0.20;;;;;;;23.48;100.00;100795.94;2616307;54;20170;-64
2022/06/26 01:02:38;;;;;;;0.00;0.00;;;;;;;23.44;100.00;100803.41;2616345;54;20149;-67
2022/06/26 01:05:12;;;;;;;0.00;0.00;;;;;;;23.76;100.00;100797.94;2616059;54;20145;-64
2022/06/26 01:07:42;;;;;;;0.00;0.00;;;;;;;24.15;100.00;100802.38;2616230;54;20152;-64
2022/06/26 01:10:13;;;;;;;0.00;0.00;;;;;;;24.35;100.00;100803.53;2616106;47;20152;-63
2022/06/26 01:12:43;;;;;;;0.00;0.00;;;;;;;24.05;100.00;100791.97;2616351;54;20149;-63
2022/06/26 01:15:17;;;;;;;0.00;0.00;;;;;;;24.36;100.00;100794.56;2616578;54;20149;-63
2022/06/26 01:17:47;;;;;;;0.00;0.00;;;;;;;24.13;100.00;100793.72;2616519;54;20145;-63
2022/06/26 01:20:17;;;;;;;0.00;0.00;;;;;;;24.21;100.00;100796.34;2616220;54;20149;-63
2022/06/26 01:22:59;;;;;;;0.00;0.00;;;;;;;24.47;100.00;100790.66;2616749;54;20709;-63
2022/06/26 01:25:44;;;;;;;0.03;0.03;;;;;;;23.86;100.00;100795.09;2617071;54;20169;-63
2022/06/26 01:28:15;;;;;;;0.00;0.00;;;;;;;23.75;100.00;100801.59;2617148;54;20141;-63
2022/06/26 01:30:45;;;;;;;0.00;0.00;;;;;;;23.99;100.00;100805.91;2617021;54;20152;-64
2022/06/26 01:33:15;;;;;;;0.00;0.00;;;;;;;24.24;100.00;100804.75;2616781;54;20149;-64
2022/06/26 01:35:46;;;;;;;0.00;0.00;;;;;;;23.83;100.00;100797.25;2616906;54;20151;-64
2022/06/26 01:38:21;;;;;;;0.00;0.00;;;;;;;23.69;100.00;100797.00;2617339;39;20546;-64
2022/06/26 01:40:53;;;;;;;0.05;0.05;;;;;;;23.28;100.00;100792.88;2616920;54;20166;-63
2022/06/26 01:43:25;;;;;;;0.10;0.10;;;;;;;23.42;100.00;100792.16;2617175;54;20188;-63
2022/06/26 01:45:57;;;;;;;0.05;0.03;;;;;;;23.00;100.00;100794.28;2616808;52;20141;-64
2022/06/26 01:48:28;;;;;;;0.00;0.00;;;;;;;23.52;100.00;100794.59;2616820;54;20145;-64
2022/06/26 01:51:00;;;;;;;0.00;0.00;;;;;;;23.96;100.00;100793.00;2616757;54;20204;-63
2022/06/26 01:53:34;;;;;;;0.00;0.00;;;;;;;23.75;100.00;100788.34;2617256;39;20557;-64
2022/06/26 01:56:05;;;;;;;0.00;0.00;;;;;;;23.68;100.00;100789.22;2616977;54;20142;-64
2022/06/26 01:58:36;;;;;;;0.28;0.28;;;;;;;23.96;100.00;100793.00;2616757;54;20152;-64
2022/06/26 02:01:08;;;;;;;0.00;0.00;;;;;;;24.17;100.00;100795.88;2616907;54;20152;-63
2022/06/26 02:03:38;;;;;;;0.00;0.00;;;;;;;24.12;100.00;100798.19;2617121;39;20537;-63
2022/06/26 02:06:10;;;;;;;0.00;0.00;;;;;;;24.16;100.00;100796.88;2616920;54;20148;-64
2022/06/26 02:08:43;;;;;;;0.00;0.00;;;;;;;24.37;100.00;100796.22;2617518;54;20141;-66
2022/06/26 02:13:56;;;;;;;0.00;0.00;;;;;;;24.53;100.00;100814.63;2618793;47;20146;-64
2022/06/26 02:16:28;;;;;;;0.00;0.00;;;;;;;24.54;100.00;100808.31;2617913;54;20141;-64
2022/06/26 02:19:00;;;;;;;0.00;0.00;;;;;;;24.64;100.00;100810.72;2616996;54;20146;-64
2022/06/26 02:21:31;;;;;;;0.10;0.10;;;;;;;24.36;100.00;100806.97;2616779;54;20153;-63
2022/06/26 02:24:04;;;;;;;0.00;0.00;;;;;;;24.37;100.00;100808.63;2617257;39;20579;-63
2022/06/26 02:26:35;;;;;;;0.10;0.10;;;;;;;23.96;100.00;100813.38;2616881;54;20167;-64
2022/06/26 02:29:05;;;;;;;0.00;0.00;;;;;;;23.76;100.00;100803.25;2616602;54;20145;-65
2022/06/26 02:31:35;;;;;;;0.10;0.10;;;;;;;23.99;100.00;100803.25;2617014;46;20674;-63
2022/06/26 02:34:05;;;;;;;0.10;0.10;;;;;;;23.97;100.00;100807.09;2616425;54;20141;-63
2022/06/26 02:36:35;;;;;;;0.00;0.00;;;;;;;24.17;100.00;100808.31;2616640;54;20145;-63
2022/06/26 02:39:08;;;;;;;0.00;0.00;;;;;;;24.22;100.00;100816.56;2616993;39;20575;-64
2022/06/26 02:41:39;;;;;;;0.00;0.00;;;;;;;24.32;100.00;100809.16;2616733;54;20148;-63
2022/06/26 02:44:09;;;;;;;0.00;0.00;;;;;;;24.48;100.00;100817.00;2616731;54;20146;-63
2022/06/26 02:46:39;;;;;;;0.00;0.00;;;;;;;24.52;100.00;100814.81;2616673;47;20145;-64
2022/06/26 02:49:09;;;;;;;0.00;0.00;;;;;;;24.67;100.00;100819.13;2616591;47;20153;-64
2022/06/26 02:51:40;;;;;;;0.00;0.00;;;;;;;24.31;100.00;100818.16;2616457;54;20200;-63
2022/06/26 02:54:13;;;;;;;0.00;0.00;;;;;;;24.31;100.00;100818.16;2616593;54;20148;-64
2022/06/26 02:56:43;;;;;;;0.00;0.00;;;;;;;24.27;100.00;100819.50;2616637;54;20142;-64
2022/06/26 02:59:13;;;;;;;0.20;0.15;;;;;;;23.72;100.00;100811.72;2616652;54;20145;-65
2022/06/26 03:01:43;;;;;;;0.00;0.00;;;;;;;23.83;100.00;100819.28;2616685;54;20153;-64
2022/06/26 03:04:13;;;;;;;0.00;0.00;;;;;;;23.55;100.00;100813.63;2616579;54;20146;-64
2022/06/26 03:06:44;;;;;;;0.30;0.28;;;;;;;23.46;100.00;100817.34;2616573;54;20167;-63
2022/06/26 03:09:17;;;;;;;0.00;0.00;;;;;;;23.43;100.00;100822.94;2616694;51;20146;-63
2022/06/26 03:11:47;;;;;;;0.00;0.00;;;;;;;23.44;100.00;100823.78;2616732;54;20149;-63
2022/06/26 03:14:17;;;;;;;0.20;0.20;;;;;;;23.57;100.00;100811.66;2616679;54;20146;-63
2022/06/26 03:16:47;;;;;;;0.75;0.75;;;;;;;23.51;100.00;100817.63;2616609;54;20150;-63
2022/06/26 03:19:17;;;;;;;0.00;0.00;;;;;;;23.30;100.00;100825.31;2616543;54;20142;-63
2022/06/26 03:21:48;;;;;;;0.30;0.30;;;;;;;23.30;100.00;100828.78;2616501;54;20145;-64
2022/06/26 03:24:21;;;;;;;0.00;0.00;;;;;;;23.40;100.00;100833.88;2616621;54;20142;-64
2022/06/26 03:26:51;;;;;;;0.10;0.10;;;;;;;23.01;100.00;100844.41;2616502;54;20145;-64
2022/06/26 03:29:21;;;;;;;0.90;0.90;;;;;;;21.98;100.00;100853.00;2616555;54;20671;-63
2022/06/26 03:31:51;;;;;;;1.13;1.13;;;;;;;21.40;100.00;100858.19;2616533;54;20148;-63
2022/06/26 03:34:22;;;;;;;1.25;1.15;;;;;;;20.79;100.00;100855.66;2616508;54;20252;-63
2022/06/26 03:36:52;;;;;;;0.90;0.90;;;;;;;20.63;100.00;100864.28;2616832;54;20146;-63
2022/06/26 03:39:25;;;;;;;0.17;0.15;;;;;;;20.56;100.00;100863.25;2616876;54;20261;-63
2022/06/26 03:42:01;;;;;;;0.75;0.70;;;;;;;19.88;100.00;100867.31;2616710;54;20141;-64
2022/06/26 03:44:33;;;;;;;1.50;1.42;;;;;;;19.69;100.00;100881.44;2616485;54;20142;-63
2022/06/26 03:47:03;;;;;;;2.22;2.13;;;;;;;19.69;100.00;100881.44;2616491;54;20149;-64
2022/06/26 03:49:33;;;;;;;1.27;0.85;;;;;;;19.87;100.00;100882.28;2617278;54;20141;-63
2022/06/26 03:52:04;;;;;;;1.50;0.95;;;;;;;20.12;100.00;100887.81;2616890;39;20588;-63
2022/06/26 03:54:37;;;;;;;1.45;0.75;;;;;;;20.49;100.00;100896.47;2616415;54;20146;-63
2022/06/26 03:57:08;;;;;;;0.00;0.00;;;;;;;20.84;100.00;100896.44;2616530;47;20675;-63
2022/06/26 03:59:38;;;;;;;0.45;0.45;;;;;;;20.85;100.00;100898.09;2616831;39;20569;-63
2022/06/26 04:02:09;;;;;;;0.28;0.28;;;;;;;21.22;100.00;100883.84;2616468;54;20142;-63
2022/06/26 04:04:39;;;;;;;2.75;1.45;;;;;;;21.09;100.00;100889.53;2616540;54;20141;-63
2022/06/26 04:07:12;;;;;;;0.90;0.90;;;;;;;20.57;100.00;100899.19;2616441;54;20141;-63
2022/06/26 04:09:45;;;;;;;0.20;0.20;;;;;;;20.53;100.00;100901.28;2617027;39;20671;-63
2022/06/26 04:12:15;;;;;;;0.00;0.00;;;;;;;20.99;100.00;100896.69;2616555;54;20142;-64
2022/06/26 04:14:46;;;;;;;0.85;0.82;;;;;;;21.24;100.00;100905.63;2616613;54;20146;-63
2022/06/26 04:17:17;;;;;;;1.75;1.65;;;;;;;21.11;100.00;100898.09;2616530;54;20165;-63
2022/06/26 04:19:52;;;;;;;0.38;0.38;;;;;;;21.17;100.00;100908.06;2616503;47;20189;-63
2022/06/26 04:22:22;;;;;;;33.75;1.83;;;;;;;21.46;100.00;100908.56;2616476;54;20141;-63
2022/06/26 04:24:55;;;;;;;1.27;0.65;;;;;;;21.66;100.00;100913.63;2617371;54;20148;-63
2022/06/26 04:27:25;;;;;;;0.10;0.10;;;;;;;21.77;100.00;100922.09;2618672;54;20141;-63
2022/06/26 04:29:55;;;;;;;0.10;0.10;;;;;;;21.98;100.00;100913.78;2617269;54;20148;-63
2022/06/26 04:32:25;;;;;;;1.00;1.00;;;;;;;21.81;100.00;100909.38;2616438;54;20141;-64
2022/06/26 04:34:56;;;;;;;0.35;0.32;;;;;;;21.58;100.00;100911.78;2616430;47;20145;-63
2022/06/26 04:37:26;;;;;;;0.93;0.93;;;;;;;21.86;100.00;100910.56;2616426;47;20152;-62
2022/06/26 04:39:59;;;;;;;0.25;0.25;;;;;;;22.22;100.00;100910.38;2616382;54;20172;-63
2022/06/26 04:42:29;;;;;;;4.13;3.92;;;;;;;22.24;100.00;100911.00;2616732;54;20152;-63
2022/06/26 04:45:00;;;;;;;0.00;0.00;;;;;;;22.84;100.00;100906.28;2616898;54;20148;-63
2022/06/26 04:47:30;;;;;;;4.82;1.63;;;;;;;22.85;100.00;100906.16;2616536;54;20142;-64
2022/06/26 04:50:00;;;;;;;0.63;0.63;;;;;;;23.02;100.00;100906.13;2616816;46;20160;-63
2022/06/26 04:52:31;;;;;;;1.38;1.27;;;;;;;23.07;100.00;100909.91;2616236;54;20208;-63
2022/06/26 04:55:04;;;;;;;1.65;1.58;;;;;;;23.52;100.00;100898.75;2616251;54;20149;-64
2022/06/26 04:57:34;;;;;;;0.45;0.45;;;;;;;23.72;100.00;100897.34;2615921;54;20164;-65
2022/06/26 05:00:06;;;;;;;0.00;0.00;;;;;;;23.76;100.00;100903.94;2616381;54;20141;-64
2022/06/26 05:02:36;;;;;;;0.68;0.68;;;;;;;23.57;100.00;100900.88;2616048;54;20142;-63
2022/06/26 05:05:08;;;;;;;0.00;0.00;;;;;;;23.68;100.00;100893.38;2616221;54;20228;-63
2022/06/26 05:07:38;;;;;;;0.00;0.00;;;;;;;23.44;100.00;100892.63;2616224;50;20142;-64
2022/06/26 05:10:12;;;;;;;0.00;0.00;;;;;;;23.47;100.00;100902.91;2616048;54;20142;-65
2022/06/26 05:12:42;;;;;;;0.73;0.73;;;;;;;23.33;100.00;100902.59;2616264;54;20142;-64
2022/06/26 05:15:13;;;;;;;0.05;0.05;;;;;;;23.65;100.00;100900.84;2616251;54;20146;-64
2022/06/26 05:17:43;;;;;;;0.25;0.25;;;;;;;24.02;100.00;100903.66;2616278;54;20707;-64
2022/06/26 05:20:14;;;;;;;0.10;0.10;;;;;;;23.46;100.00;100912.69;2616178;54;20141;-64
2022/06/26 05:22:44;;;;;;;0.05;0.05;;;;;;;23.53;100.00;100903.06;2616217;54;20146;-64
2022/06/26 05:25:17;;;;;;;1.23;0.80;;;;;;;23.99;100.00;100903.19;2616400;54;20142;-64
2022/06/26 05:27:47;;;;;;;0.03;0.03;;;;;;;24.17;100.00;100906.41;2616244;54;20146;-64
2022/06/26 05:30:17;;;;;;;0.57;0.57;;;;;;;23.88;100.00;100907.03;2616219;54;20142;-64
2022/06/26 05:32:48;;;;;;;0.55;0.47;;;;;;;23.51;100.00;100915.63;2616163;54;20149;-64
2022/06/26 05:35:18;;;;;;;2.40;2.28;;;;;;;23.60;100.00;100919.06;2615944;54;20141;-64
2022/06/26 05:37:48;;;;;;;0.30;0.30;;;;;;;23.76;100.00;100919.00;2616083;54;20142;-64
2022/06/26 05:40:21;;;;;;;2.45;1.15;;;;;;;23.43;100.00;100917.50;2616216;54;20678;-64
2022/06/26 05:42:51;;;;;;;4.07;1.33;;;;;;;22.81;100.00;100907.47;2616170;54;20753;-65
2022/06/26 05:45:22;;;;;;;0.17;0.17;;;;;;;23.31;100.00;100924.91;2616137;54;20153;-63
2022/06/26 05:47:52;;;;;;;2.72;1.42;;;;;;;23.08;100.00;100926.63;2616197;54;20670;-64
2022/06/26 05:50:23;;;;;;;1.63;0.90;;;;;;;23.26;100.00;100919.31;2616178;54;20134;-64
2022/06/26 05:52:53;;;;;;;1.52;1.33;;;;;;;23.44;100.00;100922.59;2616104;54;20185;-65
2022/06/26 05:55:27;;;;;;;0.57;0.57;;;;;;;23.56;100.00;100917.75;2615973;54;20150;-64
2022/06/26 05:57:57;;;;;;;3.83;1.88;;;;;;;23.86;100.00;100918.81;2615945;54;20694;-63
2022/06/26 06:00:28;;;;;;;0.50;0.22;;;;;;;23.50;100.00;100918.47;2616031;54;20170;-63
2022/06/26 06:02:58;;;;;;;0.88;0.80;;;;;;;23.72;100.00;100918.53;2616164;54;20166;-64
2022/06/26 06:05:29;;;;;;;0.52;0.52;;;;;;;23.82;100.00;100926.28;2616016;54;20182;-63
2022/06/26 06:08:00;;;;;;;0.00;0.00;;;;;;;23.97;100.00;100927.22;2616653;39;20197;-63
2022/06/26 06:10:33;;;;;;;0.00;0.00;;;;;;;24.14;100.00;100931.47;2616921;54;20148;-63
2022/06/26 06:13:09;;;;;;;0.45;0.45;;;;;;;24.27;100.00;100928.25;2616770;54;20149;-65
2022/06/26 06:15:39;;;;;;;0.00;0.00;;;;;;;24.58;100.00;100931.69;2616822;54;20697;-63
2022/06/26 06:18:11;;;;;;;0.00;0.00;;;;;;;25.25;100.00;100931.75;2616712;47;20412;-65
2022/06/26 06:20:42;;;;;;;0.00;0.00;;;;;;;25.86;100.00;100938.56;2616865;54;20148;-64
2022/06/26 06:23:32;;;;;;;0.00;0.00;;;;;;;26.14;100.00;100921.91;2617231;39;20516;-65
2022/06/26 06:26:05;;;;;;;0.00;0.00;;;;;;;26.28;100.00;100921.88;2616960;54;20134;-64
2022/06/26 06:28:36;;;;;;;0.10;0.10;;;;;;;26.62;100.00;100923.88;2617022;54;20142;-65
2022/06/26 06:31:06;;;;;;;0.00;0.00;;;;;;;26.62;100.00;100917.72;2618308;52;20142;-65
2022/06/26 06:33:37;;;;;;;0.00;0.00;;;;;;;26.82;100.00;100926.72;2616854;54;20141;-64
2022/06/26 06:36:08;;;;;;;0.00;0.00;;;;;;;26.82;100.00;100918.72;2616639;54;20270;-65
2022/06/26 06:38:38;;;;;;;0.00;0.00;;;;;;;27.14;100.00;100918.19;2616818;54;20142;-64
2022/06/26 06:41:11;;;;;;;0.05;0.05;;;;;;;27.17;100.00;100920.44;2616793;54;20142;-63
2022/06/26 06:43:41;;;;;;;0.55;0.55;;;;;;;26.83;97.63;100917.72;2616828;54;21044;-63
2022/06/26 06:46:12;;;;;;;0.00;0.00;;;;;;;26.91;99.83;100912.28;2618148;54;20149;-64
2022/06/26 06:48:42;;;;;;;0.00;0.00;;;;;;;26.84;100.00;100914.06;2618732;54;20691;-63
2022/06/26 06:51:12;;;;;;;1.85;0.63;;;;;;;26.62;98.09;100915.06;2618493;54;20203;-63
2022/06/26 06:53:43;;;;;;;0.30;0.30;;;;;;;26.90;94.42;100913.28;2616645;54;20134;-64
2022/06/26 06:56:15;;;;;;;0.10;0.10;;;;;;;27.14;99.69;100918.19;2616398;54;20165;-64
2022/06/26 06:58:52;;;;;;;1.50;1.40;;;;;;;27.00;93.01;100914.59;2549565;54;10002524;-63
2022/06/26 07:01:22;;;;;;;5.85;0.70;;;;;;;27.13;86.93;100918.34;2617353;54;20380;-64
2022/06/26 07:03:52;;;;;;;0.30;0.30;;;;;;;27.30;85.11;100917.03;2616740;54;20148;-64
2022/06/26 07:06:23;;;;;;;0.00;0.00;;;;;;;27.43;90.43;100915.28;2616693;54;20148;-64
2022/06/26 07:08:53;;;;;;;0.20;0.20;;;;;;;27.28;84.80;100911.91;2616695;39;20562;-63
2022/06/26 07:11:26;;;;;;;0.10;0.10;;;;;;;26.80;83.23;100907.44;2616831;54;20142;-64
2022/06/26 07:13:56;;;;;;;0.00;0.00;;;;;;;27.25;96.98;100909.63;2616743;54;20148;-65
2022/06/26 07:16:27;;;;;;;0.00;0.00;;;;;;;27.25;91.13;100920.28;2616359;54;20145;-65
2022/06/26 07:18:57;;;;;;;0.20;0.20;;;;;;;27.20;85.93;100917.38;2616346;54;20213;-65
2022/06/26 07:21:27;;;;;;;0.00;0.00;;;;;;;27.53;95.47;100922.94;2616345;54;20141;-64
2022/06/26 07:23:57;;;;;;;0.15;0.10;;;;;;;27.55;82.66;100912.94;2616595;54;20149;-65
2022/06/26 07:26:31;;;;;;;0.00;0.00;;;;;;;27.35;85.35;100915.44;2616552;54;20148;-64
2022/06/26 07:29:01;;;;;;;0.10;0.10;;;;;;;27.45;79.19;100915.91;2616433;54;20145;-65
2022/06/26 07:31:31;;;;;;;0.00;0.00;;;;;;;27.83;87.03;100910.19;2616555;54;20670;-64
2022/06/26 07:34:16;;;;;;;0.00;0.00;;;;;;;27.70;75.77;100905.59;2616276;54;20142;-65
2022/06/26 07:36:49;;;;;;;0.98;0.57;;;;;;;27.76;73.08;100909.34;2616511;47;20137;-65
2022/06/26 07:39:21;;;;;;;0.00;0.00;;;;;;;27.59;78.23;100918.69;2616329;54;20142;-65
2022/06/26 07:41:54;;;;;;;0.00;0.00;;;;;;;27.78;77.70;100910.75;2616777;54;20150;-65
2022/06/26 07:44:24;;;;;;;0.15;0.15;;;;;;;28.03;72.32;100920.91;2616563;54;20149;-64
